createdAt,value
2019-05-18T00:01:01.652Z,100101.42
2019-05-18T00:03:32.433Z,100105.44
2019-05-18T00:06:02.675Z,100097.22
2019-05-18T00:08:34.212Z,100092.80
2019-05-18T00:11:04.417Z,100094.83
2019-05-18T00:13:34.595Z,100090.80
2019-05-18T00:16:04.763Z,100085.74
2019-05-18T00:18:35.366Z,100086.31
2019-05-18T00:21:05.539Z,100079.13
2019-05-18T00:23:36.321Z,100080.28
2019-05-18T00:26:06.467Z,100084.77
2019-05-18T00:28:36.674Z,100086.02
2019-05-18T00:31:06.942Z,100083.27
2019-05-18T00:43:51.100Z,100073.05
2019-05-18T00:46:21.715Z,100073.91
2019-05-18T00:48:52.030Z,100075.55
2019-05-18T00:51:23.610Z,100073.80
2019-05-18T00:55:09.189Z,100077.53
2019-05-18T01:01:58.655Z,100076.12
2019-05-18T01:04:30.410Z,100080.45
2019-05-18T01:07:00.686Z,100079.20
2019-05-18T01:09:31.322Z,100084.37
2019-05-18T01:12:01.839Z,100084.46
2019-05-18T01:14:32.176Z,100078.29
2019-05-18T01:17:02.348Z,100077.77
2019-05-18T01:19:33.412Z,100077.89
2019-05-18T01:22:03.654Z,100072.55
2019-05-18T01:24:33.916Z,100072.31
2019-05-18T01:27:04.042Z,100067.67
2019-05-18T01:29:34.252Z,100065.00
2019-05-18T01:32:04.908Z,100065.70
2019-05-18T01:34:35.100Z,100060.34
2019-05-18T01:37:05.237Z,100065.54
2019-05-18T01:39:36.798Z,100070.77
2019-05-18T01:42:07.501Z,100062.63
2019-05-18T01:44:37.640Z,100060.52
2019-05-18T01:47:07.981Z,100059.69
2019-05-18T01:49:38.151Z,100072.36
2019-05-18T01:52:09.857Z,100071.31
2019-05-18T01:54:41.202Z,100064.47
2019-05-18T02:05:01.518Z,100074.09
2019-05-18T02:07:36.660Z,100072.56
2019-05-18T02:10:08.151Z,100088.16
2019-05-18T02:12:38.755Z,100075.50
2019-05-18T02:15:10.029Z,100080.61
2019-05-18T02:17:40.171Z,100079.75
2019-05-18T02:20:10.533Z,100077.94
2019-05-18T02:22:40.794Z,100075.39
2019-05-18T02:25:11.819Z,100084.61
2019-05-18T02:27:41.964Z,100076.81
2019-05-18T02:30:17.244Z,100084.51
2019-05-18T02:32:45.573Z,100085.83
2019-05-18T02:35:16.154Z,100084.75
2019-05-18T02:37:46.333Z,100085.16
2019-05-18T02:40:16.947Z,100074.82
2019-05-18T02:42:47.087Z,100077.16
2019-05-18T02:45:18.641Z,100071.29
2019-05-18T02:47:48.837Z,100063.55
2019-05-18T02:50:18.975Z,100063.15
2019-05-18T02:52:50.042Z,100068.86
2019-05-18T02:55:20.645Z,100059.61
2019-05-18T02:57:50.896Z,100060.72
2019-05-18T03:00:21.297Z,100065.50
2019-05-18T03:02:51.474Z,100067.00
2019-05-18T03:05:21.647Z,100068.39
2019-05-18T03:08:51.276Z,100063.99
2019-05-18T03:12:46.732Z,100063.78
2019-05-18T03:16:15.271Z,100049.47
2019-05-18T03:19:19.573Z,100057.47
2019-05-18T03:22:21.041Z,100058.28
2019-05-18T03:25:56.999Z,100062.66
2019-05-18T03:36:55.751Z,100055.73
2019-05-18T03:43:49.446Z,100053.86
2019-05-18T03:51:46.106Z,100055.45
2019-05-18T03:54:18.122Z,100049.03
2019-05-18T03:56:49.263Z,100057.67
2019-05-18T03:59:19.418Z,100053.13
2019-05-18T04:02:13.893Z,100056.99
2019-05-18T04:12:00.367Z,100053.44
2019-05-18T04:14:31.403Z,100045.38
2019-05-18T04:17:01.968Z,100046.05
2019-05-18T04:19:45.415Z,100049.53
2019-05-18T04:30:42.887Z,100045.10
2019-05-18T04:33:14.729Z,100050.14
2019-05-18T04:35:44.870Z,100045.86
2019-05-18T04:38:15.043Z,100047.47
2019-05-18T04:40:45.294Z,100045.86
2019-05-18T04:43:15.884Z,100045.94
2019-05-18T04:45:46.057Z,100045.98
2019-05-18T04:48:16.200Z,100047.13
2019-05-18T04:50:46.368Z,100053.84
2019-05-18T04:53:16.638Z,100043.70
2019-05-18T04:55:48.040Z,100055.14
2019-05-18T04:58:18.314Z,100056.06
2019-05-18T05:00:48.445Z,100052.75
2019-05-18T05:03:18.625Z,100060.41
2019-05-18T05:05:49.401Z,100062.29
2019-05-18T05:08:19.982Z,100062.81
2019-05-18T05:10:50.249Z,100062.34
2019-05-18T05:13:20.486Z,100062.02
2019-05-18T05:15:50.648Z,100063.98
2019-05-18T05:18:20.898Z,100065.63
2019-05-18T05:20:51.568Z,100061.98
2019-05-18T05:23:21.731Z,100059.58
2019-05-18T05:25:52.404Z,100064.46
2019-05-18T05:28:22.557Z,100055.97
2019-05-18T05:30:52.684Z,100061.16
2019-05-18T05:33:22.924Z,100058.67
2019-05-18T05:35:53.590Z,100055.70
2019-05-18T05:38:23.726Z,100063.13
2019-05-18T05:40:55.190Z,100059.94
2019-05-18T05:43:25.362Z,100056.20
2019-05-18T05:45:55.509Z,100055.61
2019-05-18T05:48:25.767Z,100062.48
2019-05-18T05:50:56.472Z,100062.44
2019-05-18T05:53:26.844Z,100058.91
2019-05-18T05:55:58.301Z,100059.69
2019-05-18T05:58:29.955Z,100067.77
2019-05-18T06:01:00.653Z,100068.81
2019-05-18T06:03:30.920Z,100066.37
2019-05-18T06:06:39.560Z,100064.66
2019-05-18T06:16:25.449Z,100073.80
2019-05-18T06:18:55.653Z,100078.09
2019-05-18T06:21:25.847Z,100082.48
2019-05-18T06:23:56.382Z,100081.16
2019-05-18T06:33:48.875Z,100092.25
2019-05-18T06:36:20.385Z,100096.53
2019-05-18T06:38:50.596Z,100104.19
2019-05-18T06:41:20.759Z,100102.95
2019-05-18T06:43:51.030Z,100105.16
2019-05-18T06:47:01.320Z,100107.35
2019-05-18T06:50:18.576Z,100108.00
2019-05-18T06:53:13.989Z,100110.38
2019-05-18T06:56:18.089Z,100112.52
2019-05-18T06:58:54.621Z,100109.27
2019-05-18T07:01:24.816Z,100103.91
2019-05-18T07:03:55.121Z,100103.91
2019-05-18T07:06:25.431Z,100107.99
2019-05-18T07:08:57.074Z,100113.47
2019-05-18T07:11:28.022Z,100113.91
2019-05-18T07:13:58.185Z,100112.70
2019-05-18T07:16:28.337Z,100113.09
2019-05-18T07:18:58.482Z,100114.70
2019-05-18T07:21:28.773Z,100112.22
2019-05-18T07:23:59.419Z,100111.72
2019-05-18T07:26:29.567Z,100112.39
2019-05-18T07:29:05.538Z,100113.56
2019-05-18T07:31:33.799Z,100111.44
2019-05-18T07:34:04.004Z,100114.87
2019-05-18T07:36:34.170Z,100112.67
2019-05-18T07:39:06.057Z,100110.73
2019-05-18T07:41:46.351Z,100109.52
2019-05-18T07:44:08.553Z,100111.55
2019-05-18T07:46:39.173Z,100102.26
2019-05-18T07:49:09.303Z,100106.75
2019-05-18T07:51:39.510Z,100106.75
2019-05-18T07:54:10.218Z,100108.37
2019-05-18T07:56:40.449Z,100104.55
2019-05-18T07:59:12.333Z,100112.54
2019-05-18T08:01:43.753Z,100107.91
2019-05-18T08:04:14.366Z,100114.64
2019-05-18T08:06:46.673Z,100116.64
2019-05-18T08:09:16.827Z,100116.64
2019-05-18T08:11:47.135Z,100116.60
2019-05-18T08:14:17.763Z,100120.08
2019-05-18T08:16:48.396Z,100126.16
2019-05-18T08:19:18.960Z,100125.13
2019-05-18T08:22:39.020Z,100123.73
2019-05-18T08:25:57.677Z,100108.98
2019-05-18T08:28:56.358Z,100123.44
2019-05-18T08:31:27.495Z,100124.63
2019-05-18T08:33:57.780Z,100120.46
2019-05-18T08:36:27.966Z,100122.32
2019-05-18T08:38:58.665Z,100118.95
2019-05-18T08:45:35.277Z,100122.92
2019-05-18T08:51:10.516Z,100128.77
2019-05-18T08:53:42.006Z,100126.02
2019-05-18T08:56:12.196Z,100123.75
2019-05-18T08:58:42.389Z,100134.58
2019-05-18T09:01:15.734Z,100132.88
2019-05-18T09:03:46.461Z,100134.56
2019-05-18T09:06:16.618Z,100132.89
2019-05-18T09:08:48.215Z,100123.53
2019-05-18T09:11:20.198Z,100129.03
2019-05-18T09:13:50.425Z,100124.19
2019-05-18T09:16:20.581Z,100130.50
2019-05-18T09:18:50.778Z,100124.38
2019-05-18T09:21:20.936Z,100111.11
2019-05-18T09:23:53.172Z,100118.80
2019-05-18T09:26:23.349Z,100122.25
2019-05-18T09:28:53.542Z,100116.45
2019-05-18T09:31:23.807Z,100120.39
2019-05-18T09:38:00.516Z,100127.73
2019-05-18T09:44:20.496Z,100134.75
2019-05-18T09:46:51.078Z,100139.05
2019-05-18T09:49:21.273Z,100141.87
2019-05-18T09:51:51.419Z,100136.66
2019-05-18T09:55:06.692Z,100138.17
2019-05-18T10:01:52.020Z,100130.41
2019-05-18T10:04:23.939Z,100137.91
2019-05-18T10:06:54.208Z,100138.73
2019-05-18T10:09:24.879Z,100144.27
2019-05-18T10:11:55.076Z,100137.48
2019-05-18T10:14:25.231Z,100139.84
2019-05-18T10:16:55.396Z,100139.83
2019-05-18T10:19:25.704Z,100131.08
2019-05-18T10:21:56.466Z,100131.13
2019-05-18T10:24:27.168Z,100132.50
2019-05-18T10:26:57.365Z,100131.94
2019-05-18T10:29:27.565Z,100126.64
2019-05-18T10:31:58.228Z,100120.84
2019-05-18T10:34:28.378Z,100119.40
2019-05-18T10:36:58.542Z,100117.56
2019-05-18T10:39:29.917Z,100122.14
2019-05-18T10:42:00.479Z,100124.19
2019-05-18T10:44:31.566Z,100115.84
2019-05-18T10:47:02.756Z,100122.75
2019-05-18T10:49:32.939Z,100124.13
2019-05-18T10:52:03.232Z,100121.16
2019-05-18T10:54:36.079Z,100118.34
2019-05-18T10:57:06.226Z,100122.88
2019-05-18T10:59:36.415Z,100117.30
2019-05-18T11:02:06.575Z,100120.67
2019-05-18T11:04:40.506Z,100112.56
2019-05-18T11:07:10.709Z,100109.45
2019-05-18T11:09:41.056Z,100108.61
2019-05-18T11:12:12.312Z,100108.46
2019-05-18T11:14:43.016Z,100109.80
2019-05-18T11:17:13.193Z,100104.38
2019-05-18T11:19:44.730Z,100099.03
2019-05-18T11:22:14.901Z,100102.36
2019-05-18T11:24:45.461Z,100097.79
2019-05-18T11:27:15.605Z,100096.66
2019-05-18T11:29:46.241Z,100101.06
2019-05-18T11:32:16.385Z,100098.14
2019-05-18T11:34:46.546Z,100099.15
2019-05-18T11:37:16.798Z,100096.47
2019-05-18T11:39:47.436Z,100093.65
2019-05-18T11:42:17.563Z,100089.52
2019-05-18T11:44:48.315Z,100092.80
2019-05-18T11:47:18.479Z,100082.33
2019-05-18T11:49:49.227Z,100090.54
2019-05-18T11:52:19.427Z,100083.20
2019-05-18T11:54:49.661Z,100086.44
2019-05-18T11:57:20.680Z,100089.05
2019-05-18T11:59:52.991Z,100086.42
2019-05-18T12:02:24.675Z,100085.99
2019-05-18T12:04:55.849Z,100083.17
2019-05-18T12:07:26.115Z,100084.13
2019-05-18T12:10:03.069Z,100077.80
2019-05-18T12:16:32.973Z,100070.88
2019-05-18T12:19:03.938Z,100074.55
2019-05-18T12:21:37.882Z,100067.36
2019-05-18T12:24:15.289Z,100064.96
2019-05-18T12:26:55.537Z,100063.36
2019-05-18T12:29:30.187Z,100058.64
2019-05-18T12:32:00.446Z,100066.03
2019-05-18T12:34:31.148Z,100066.42
2019-05-18T12:37:02.336Z,100069.11
2019-05-18T12:39:32.489Z,100066.63
2019-05-18T12:42:02.652Z,100071.44
2019-05-18T12:44:32.874Z,100070.95
2019-05-18T12:47:03.631Z,100073.47
2019-05-18T12:49:33.731Z,100070.64
2019-05-18T12:59:43.992Z,100060.51
2019-05-18T13:02:59.617Z,100065.33
2019-05-18T13:05:59.933Z,100052.12
2019-05-18T13:12:11.736Z,100047.94
2019-05-18T13:22:08.468Z,100043.68
2019-05-18T13:25:12.028Z,100039.09
2019-05-18T13:28:15.841Z,100039.70
2019-05-18T13:31:30.386Z,100033.81
2019-05-18T13:34:00.545Z,100035.12
2019-05-18T13:36:30.735Z,100031.88
2019-05-18T13:39:00.890Z,100030.72
2019-05-18T13:41:32.514Z,100021.44
2019-05-18T13:44:52.965Z,100023.28
2019-05-18T13:48:03.234Z,100023.70
2019-05-18T13:53:55.105Z,100029.09
2019-05-18T13:56:25.713Z,100023.63
2019-05-18T13:58:55.882Z,100023.20
2019-05-18T14:01:26.003Z,100024.02
2019-05-18T14:03:56.161Z,100018.45
2019-05-18T14:06:27.172Z,100024.96
2019-05-18T14:08:57.750Z,100023.55
2019-05-18T14:11:27.915Z,100020.06
2019-05-18T14:14:52.964Z,100019.41
2019-05-18T14:17:50.359Z,100028.17
2019-05-18T14:20:53.092Z,100022.36
2019-05-18T14:23:30.539Z,100031.41
2019-05-18T14:26:00.697Z,100024.38
2019-05-18T14:28:30.863Z,100025.28
2019-05-18T14:31:01.499Z,100023.70
2019-05-18T14:33:31.652Z,100020.33
2019-05-18T14:36:01.827Z,100019.91
2019-05-18T14:38:31.984Z,100019.23
2019-05-18T14:41:02.711Z,100024.28
2019-05-18T14:43:35.820Z,100025.77
2019-05-18T14:46:07.126Z,100032.65
2019-05-18T14:48:37.364Z,100028.44
2019-05-18T14:51:07.999Z,100025.42
2019-05-18T14:53:39.251Z,100029.68
2019-05-18T14:56:09.461Z,100020.93
2019-05-18T14:58:39.614Z,100019.41
2019-05-18T15:01:11.069Z,100021.34
2019-05-18T15:03:41.771Z,100019.17
2019-05-18T15:06:12.128Z,100018.64
2019-05-18T15:08:43.529Z,100013.23
2019-05-18T15:11:13.719Z,100019.91
2019-05-18T15:13:44.453Z,100011.30
2019-05-18T15:16:14.581Z,100015.81
2019-05-18T15:18:44.823Z,100015.91
2019-05-18T15:21:14.999Z,100012.66
2019-05-18T15:23:45.687Z,100019.47
2019-05-18T15:29:57.481Z,100014.55
2019-05-18T15:33:04.419Z,100012.41
2019-05-18T15:36:15.469Z,100018.34
2019-05-18T15:38:45.672Z,100012.63
2019-05-18T15:41:16.352Z,100015.97
2019-05-18T15:43:46.624Z,100014.41
2019-05-18T15:46:16.775Z,100023.54
2019-05-18T15:48:47.631Z,100022.36
2019-05-18T15:51:18.280Z,100020.52
2019-05-18T15:53:48.511Z,100019.21
2019-05-18T15:56:18.717Z,100015.56
2019-05-18T15:58:48.893Z,100010.82
2019-05-18T16:01:19.482Z,100017.73
2019-05-18T16:03:50.474Z,100012.34
2019-05-18T16:06:23.323Z,100004.55
2019-05-18T16:08:54.260Z,100008.84
2019-05-18T16:11:24.434Z,100007.11
2019-05-18T16:13:54.970Z,100009.53
2019-05-18T16:16:25.353Z,100014.55
2019-05-18T16:18:55.515Z,100014.11
2019-05-18T16:21:25.663Z,100011.62
2019-05-18T16:23:56.313Z,100016.73
2019-05-18T16:26:27.033Z,100016.05
2019-05-18T16:28:57.210Z,100011.58
2019-05-18T16:31:27.365Z,100017.14
2019-05-18T16:33:57.525Z,100020.57
2019-05-18T16:36:27.782Z,100028.89
2019-05-18T16:39:48.770Z,100018.12
2019-05-18T16:46:50.304Z,100028.39
2019-05-18T16:53:50.812Z,100029.70
2019-05-18T16:56:34.895Z,100029.70
2019-05-18T16:59:06.596Z,100028.56
2019-05-18T17:01:38.668Z,100028.66
2019-05-18T17:04:08.945Z,100024.63
2019-05-18T17:06:39.268Z,100027.06
2019-05-18T17:09:10.451Z,100025.03
2019-05-18T17:11:41.344Z,100024.94
2019-05-18T17:14:11.507Z,100027.00
2019-05-18T17:16:43.028Z,100026.50
2019-05-18T17:19:13.172Z,100025.03
2019-05-18T17:21:43.889Z,100026.90
2019-05-18T17:24:14.024Z,100021.05
2019-05-18T17:26:52.926Z,100021.00
2019-05-18T17:29:17.583Z,100028.63
2019-05-18T17:31:49.516Z,100028.41
2019-05-18T17:34:19.677Z,100040.76
2019-05-18T17:36:52.526Z,100041.49
2019-05-18T17:39:21.853Z,100043.01
2019-05-18T17:41:52.512Z,100034.95
2019-05-18T17:44:22.658Z,100037.86
2019-05-18T17:46:54.051Z,100046.75
2019-05-18T17:49:26.961Z,100045.52
2019-05-18T17:53:10.061Z,100046.17
2019-05-18T17:56:15.460Z,100050.80
2019-05-18T18:02:23.955Z,100057.25
2019-05-18T18:04:54.703Z,100058.52
2019-05-18T18:07:24.845Z,100063.13
2019-05-18T18:09:55.650Z,100052.02
2019-05-18T18:12:44.323Z,100054.61
2019-05-18T18:22:58.037Z,100049.87
2019-05-18T18:25:28.262Z,100052.12
2019-05-18T18:27:58.388Z,100058.80
2019-05-18T18:30:28.606Z,100056.38
2019-05-18T18:32:59.315Z,100062.44
2019-05-18T18:35:30.584Z,100063.87
2019-05-18T18:38:00.780Z,100072.09
2019-05-18T18:40:31.129Z,100076.02
2019-05-18T18:43:01.852Z,100080.84
2019-05-18T18:46:42.213Z,100079.70
2019-05-18T18:50:01.732Z,100083.46
2019-05-18T18:56:20.374Z,100074.16
2019-05-18T18:58:50.571Z,100076.09
2019-05-18T19:01:20.743Z,100076.59
2019-05-18T19:03:50.959Z,100073.16
2019-05-18T19:06:21.638Z,100072.54
2019-05-18T19:08:53.003Z,100075.58
2019-05-18T19:11:24.481Z,100078.09
2019-05-18T19:13:54.727Z,100076.03
2019-05-18T19:16:25.326Z,100078.02
2019-05-18T19:18:55.482Z,100078.30
2019-05-18T19:21:25.731Z,100088.14
2019-05-18T19:23:55.902Z,100096.08
2019-05-18T19:26:26.072Z,100095.89
2019-05-18T19:28:57.723Z,100103.61
2019-05-18T19:31:27.881Z,100105.08
2019-05-18T19:33:58.050Z,100106.20
2019-05-18T19:36:29.202Z,100112.22
2019-05-18T19:38:59.924Z,100123.63
2019-05-18T19:41:30.123Z,100125.86
2019-05-18T19:44:00.306Z,100130.40
2019-05-18T19:46:30.475Z,100134.55
2019-05-18T19:49:00.656Z,100134.70
2019-05-18T19:51:31.353Z,100140.56
2019-05-18T19:54:01.597Z,100143.53
2019-05-18T19:56:39.260Z,100147.94
2019-05-18T19:59:03.596Z,100150.14
2019-05-18T20:01:34.279Z,100151.00
2019-05-18T20:04:05.749Z,100147.07
2019-05-18T20:06:35.929Z,100147.34
2019-05-18T20:09:06.901Z,100154.58
2019-05-18T20:11:38.753Z,100156.79
2019-05-18T20:14:08.933Z,100152.97
2019-05-18T20:16:40.194Z,100152.48
2019-05-18T20:19:10.876Z,100156.31
2019-05-18T20:21:41.493Z,100158.41
2019-05-18T20:24:11.634Z,100158.90
2019-05-18T20:26:41.866Z,100162.94
2019-05-18T20:29:41.362Z,100157.67
2019-05-18T20:32:33.582Z,100160.25
2019-05-18T20:38:45.690Z,100151.83
2019-05-18T20:41:15.840Z,100153.63
2019-05-18T20:43:46.545Z,100156.82
2019-05-18T20:46:17.109Z,100160.66
2019-05-18T20:48:47.447Z,100160.34
2019-05-18T20:51:17.590Z,100158.78
2019-05-18T20:53:49.208Z,100170.79
2019-05-18T20:56:19.797Z,100169.53
2019-05-18T20:58:50.041Z,100164.41
2019-05-18T21:01:21.162Z,100161.80
2019-05-18T21:03:51.433Z,100163.40
2019-05-18T21:06:22.502Z,100154.18
2019-05-18T21:08:52.625Z,100154.18
2019-05-18T21:11:24.107Z,100164.16
2019-05-18T21:13:57.864Z,100155.13
2019-05-18T21:16:28.549Z,100164.88
2019-05-18T21:18:58.690Z,100147.89
2019-05-18T21:21:28.883Z,100137.56
2019-05-18T21:23:59.986Z,100131.66
2019-05-18T21:26:31.072Z,100130.50
2019-05-18T21:29:01.247Z,100122.36
2019-05-18T21:31:32.392Z,100123.78
2019-05-18T21:34:02.547Z,100123.64
2019-05-18T21:36:33.375Z,100119.20
2019-05-18T21:39:03.738Z,100123.33
2019-05-18T21:41:34.643Z,100115.51
2019-05-18T21:44:05.083Z,100121.78
2019-05-18T21:46:38.945Z,100121.78
2019-05-18T21:49:07.561Z,100112.03
2019-05-18T21:51:37.735Z,100115.68
2019-05-18T21:54:07.875Z,100120.50
2019-05-18T21:56:38.456Z,100119.64
2019-05-18T21:59:12.269Z,100108.02
2019-05-18T22:01:41.849Z,100108.64
2019-05-18T22:04:12.053Z,100110.91
2019-05-18T22:06:42.665Z,100113.08
2019-05-18T22:09:12.840Z,100109.28
2019-05-18T22:11:43.075Z,100113.08
2019-05-18T22:14:14.898Z,100107.17
2019-05-18T22:16:45.508Z,100105.39
2019-05-18T22:19:16.159Z,100104.77
2019-05-18T22:21:46.335Z,100105.25
2019-05-18T22:24:16.496Z,100104.11
2019-05-18T22:26:46.646Z,100103.23
2019-05-18T22:29:16.911Z,100095.86
2019-05-18T22:31:48.629Z,100094.08
2019-05-18T22:34:18.806Z,100093.02
2019-05-18T22:36:48.956Z,100085.81
2019-05-18T22:39:19.101Z,100082.60
2019-05-18T22:41:49.292Z,100076.61
2019-05-18T22:44:19.935Z,100079.58
2019-05-18T22:46:50.214Z,100080.78
2019-05-18T22:49:20.390Z,100080.50
2019-05-18T22:51:50.596Z,100076.70
2019-05-18T22:57:57.446Z,100079.64
2019-05-18T23:00:41.778Z,100081.70
2019-05-18T23:03:23.873Z,100076.75
2019-05-18T23:05:54.038Z,100081.98
2019-05-18T23:08:24.606Z,100093.79
2019-05-18T23:10:54.810Z,100086.92
2019-05-18T23:13:26.867Z,100088.41
2019-05-18T23:15:57.868Z,100095.13
2019-05-18T23:18:29.092Z,100090.48
2019-05-18T23:20:59.654Z,100095.13
2019-05-18T23:23:29.818Z,100094.70
2019-05-18T23:26:21.123Z,100092.89
2019-05-18T23:29:40.881Z,100094.42
2019-05-18T23:35:39.097Z,100097.25
2019-05-18T23:38:09.275Z,100084.83
2019-05-18T23:40:39.401Z,100087.61
2019-05-18T23:43:09.559Z,100088.09
2019-05-18T23:45:40.179Z,100081.70
2019-05-18T23:48:11.906Z,100084.48
2019-05-18T23:50:42.037Z,100091.06
2019-05-18T23:53:12.189Z,100102.58
2019-05-18T23:55:42.416Z,100104.30
2019-05-18T23:58:13.032Z,100096.95
